Time;durP1;ratioP1;P1;durP2;ratioP2;P2;SDS_P1;SDS_P2;PMS_P1;PMS_P2;Temp;Humidity;BMP_temperature;BMP_pressure;BME280_temperature;BME280_humidity;BME280_pressure;Samples;Min_cycle;Max_cycle;Signal;HPM_P1;HPM_P2
2022/04/19 00:00:04;;;;;;;9.50;6.10;;;;;;;;;;5053868;28;20032;-75
2022/04/19 00:02:30;;;;;;;8.75;6.00;;;;;;;;;;5054682;28;20021;-75
2022/04/19 00:04:59;;;;;;;8.90;5.80;;;;;;;;;;5062752;28;20478;-67
2022/04/19 00:07:25;;;;;;;11.55;5.78;;;;;;;;;;5054013;28;20040;-74
2022/04/19 00:09:51;;;;;;;9.20;6.53;;;;;;;;;;5053915;28;20123;-75
2022/04/19 00:12:17;;;;;;;9.38;6.45;;;;;;;;;;5054070;28;20029;-68
2022/04/19 00:14:44;;;;;;;10.13;5.80;;;;;;;;;;5053049;28;20087;-74
2022/04/19 00:17:10;;;;;;;8.88;5.65;;;;;;;;;;5053570;28;20025;-75
2022/04/19 00:19:36;;;;;;;8.65;5.60;;;;;;;;;;5052281;28;20071;-73
2022/04/19 00:22:03;;;;;;;8.82;5.70;;;;;;;;;;5053991;28;20154;-67
2022/04/19 00:24:29;;;;;;;11.88;5.93;;;;;;;;;;5052845;28;20028;-75
2022/04/19 00:26:56;;;;;;;9.68;6.05;;;;;;;;;;5053930;28;20021;-74
2022/04/19 00:29:22;;;;;;;9.35;5.90;;;;;;;;;;5053505;28;20103;-68
2022/04/19 00:31:48;;;;;;;9.02;6.60;;;;;;;;;;5053549;28;20068;-74
2022/04/19 00:34:16;;;;;;;9.07;6.40;;;;;;;;;;5052182;28;20031;-73
2022/04/19 00:36:42;;;;;;;10.95;6.43;;;;;;;;;;5053774;28;20108;-75
2022/04/19 00:39:08;;;;;;;10.23;6.45;;;;;;;;;;5053529;28;20396;-75
2022/04/19 00:41:34;;;;;;;8.50;6.40;;;;;;;;;;5053604;28;20040;-75
2022/04/19 00:44:00;;;;;;;12.57;7.03;;;;;;;;;;5053106;28;20041;-75
2022/04/19 00:46:26;;;;;;;11.82;7.10;;;;;;;;;;5052760;28;20028;-67
2022/04/19 00:48:52;;;;;;;10.73;7.38;;;;;;;;;;5052136;28;20047;-76
2022/04/19 00:51:19;;;;;;;11.77;6.32;;;;;;;;;;5052908;28;20029;-75
2022/04/19 00:53:47;;;;;;;8.55;6.15;;;;;;;;;;5053449;28;20025;-75
2022/04/19 00:56:14;;;;;;;9.10;6.40;;;;;;;;;;5052701;28;20086;-75
2022/04/19 00:58:41;;;;;;;8.35;6.20;;;;;;;;;;5053489;28;20021;-74
2022/04/19 01:01:07;;;;;;;9.77;5.93;;;;;;;;;;5053310;28;20028;-66
2022/04/19 01:03:33;;;;;;;8.85;6.07;;;;;;;;;;5052828;28;20045;-75
2022/04/19 01:05:59;;;;;;;9.60;6.13;;;;;;;;;;5051787;28;20037;-71
2022/04/19 01:08:26;;;;;;;9.70;5.82;;;;;;;;;;5033259;28;20037;-75
2022/04/19 01:13:17;;;;;;;6.35;5.05;;;;;;;;;;5033393;28;20028;-75
2022/04/19 01:13:38;;;;;;;9.10;5.60;;;;;;;;;;5033382;28;20033;-74
2022/04/19 01:16:05;;;;;;;8.07;5.93;;;;;;;;;;5033816;28;20532;-72
2022/04/19 01:18:31;;;;;;;9.27;5.68;;;;;;;;;;5051321;28;20036;-75
2022/04/19 01:20:58;;;;;;;7.53;5.55;;;;;;;;;;5053075;28;20025;-75
2022/04/19 01:23:25;;;;;;;9.98;6.10;;;;;;;;;;5053053;28;20017;-75
2022/04/19 01:25:51;;;;;;;8.20;6.30;;;;;;;;;;5051843;28;20104;-75
2022/04/19 01:28:20;;;;;;;8.18;6.43;;;;;;;;;;5052458;28;20036;-75
2022/04/19 01:30:54;;;;;;;12.02;6.43;;;;;;;;;;5056138;28;20043;-73
2022/04/19 01:33:21;;;;;;;11.85;6.45;;;;;;;;;;5057424;28;20020;-75
2022/04/19 01:35:48;;;;;;;13.52;7.47;;;;;;;;;;5057174;28;20500;-75
2022/04/19 01:38:14;;;;;;;13.15;7.25;;;;;;;;;;5056429;28;20402;-74
2022/04/19 01:40:40;;;;;;;10.35;6.75;;;;;;;;;;5055968;28;20364;-73
2022/04/19 01:43:07;;;;;;;10.10;7.28;;;;;;;;;;5056994;28;20040;-67
2022/04/19 01:45:33;;;;;;;12.25;7.35;;;;;;;;;;5055650;28;20028;-74
2022/04/19 01:48:00;;;;;;;11.27;7.43;;;;;;;;;;5054667;28;20060;-75
2022/04/19 01:50:27;;;;;;;11.25;7.47;;;;;;;;;;5056632;28;20122;-75
2022/04/19 01:52:54;;;;;;;10.88;7.00;;;;;;;;;;5056553;28;20025;-74
2022/04/19 01:55:21;;;;;;;10.55;7.15;;;;;;;;;;5057019;28;20056;-75
2022/04/19 01:57:52;;;;;;;10.55;6.57;;;;;;;;;;5056647;28;20017;-71
2022/04/19 02:00:19;;;;;;;8.45;6.25;;;;;;;;;;5056435;28;20032;-75
2022/04/19 02:02:51;;;;;;;8.45;6.50;;;;;;;;;;5053126;28;20387;-74
2022/04/19 02:05:17;;;;;;;9.00;6.40;;;;;;;;;;5056674;28;20033;-75
2022/04/19 02:07:44;;;;;;;10.75;6.63;;;;;;;;;;5056381;28;20048;-73
2022/04/19 02:10:11;;;;;;;9.48;7.15;;;;;;;;;;5038308;28;20426;-74
2022/04/19 02:12:38;;;;;;;8.15;6.68;;;;;;;;;;5055654;28;20052;-75
2022/04/19 02:15:05;;;;;;;9.52;6.80;;;;;;;;;;5056710;28;20028;-75
2022/04/19 02:17:31;;;;;;;9.07;6.72;;;;;;;;;;5054688;28;20036;-71
2022/04/19 02:20:07;;;;;;;9.98;7.03;;;;;;;;;;5055804;28;20039;-75
2022/04/19 02:22:33;;;;;;;8.25;6.38;;;;;;;;;;5054978;28;20029;-75
2022/04/19 02:25:00;;;;;;;11.18;6.70;;;;;;;;;;5055684;28;20421;-75
2022/04/19 02:27:31;;;;;;;11.45;6.47;;;;;;;;;;5055874;28;20025;-75
2022/04/19 02:29:57;;;;;;;11.50;6.47;;;;;;;;;;5056145;28;20463;-68
2022/04/19 02:32:23;;;;;;;12.57;7.18;;;;;;;;;;5055193;28;20102;-75
2022/04/19 02:34:50;;;;;;;9.45;6.57;;;;;;;;;;5056329;28;20154;-75
2022/04/19 02:37:19;;;;;;;9.50;6.22;;;;;;;;;;5054295;28;20123;-75
2022/04/19 02:39:49;;;;;;;8.90;6.10;;;;;;;;;;5054674;28;20053;-75
2022/04/19 02:42:15;;;;;;;10.52;6.38;;;;;;;;;;5055928;28;20025;-75
2022/04/19 02:44:41;;;;;;;8.38;6.25;;;;;;;;;;5055937;28;20497;-75
2022/04/19 02:47:07;;;;;;;9.48;6.07;;;;;;;;;;5055363;28;20074;-74
2022/04/19 02:49:39;;;;;;;9.25;6.20;;;;;;;;;;5053360;28;20390;-75
2022/04/19 02:52:05;;;;;;;8.15;5.88;;;;;;;;;;5055777;28;20074;-73
2022/04/19 02:54:31;;;;;;;9.07;6.30;;;;;;;;;;5055426;28;20029;-75
2022/04/19 02:56:58;;;;;;;9.85;6.50;;;;;;;;;;5055428;28;20033;-74
2022/04/19 02:59:24;;;;;;;9.20;6.10;;;;;;;;;;5054219;28;20017;-67
2022/04/19 03:01:50;;;;;;;7.78;6.00;;;;;;;;;;5054440;28;20029;-75
2022/04/19 03:04:17;;;;;;;9.40;6.22;;;;;;;;;;5053634;28;20075;-75
2022/04/19 03:06:44;;;;;;;8.13;5.88;;;;;;;;;;5055446;28;20028;-74
2022/04/19 03:09:10;;;;;;;12.68;6.18;;;;;;;;;;5055462;28;20029;-75
2022/04/19 03:11:36;;;;;;;7.63;6.05;;;;;;;;;;5055691;28;20029;-75
2022/04/19 03:14:03;;;;;;;8.55;6.63;;;;;;;;;;5055500;28;20033;-75
2022/04/19 03:16:29;;;;;;;8.45;5.97;;;;;;;;;;5055508;28;20514;-75
2022/04/19 03:18:55;;;;;;;11.77;7.00;;;;;;;;;;5049978;28;20033;-75
2022/04/19 03:21:22;;;;;;;13.27;7.47;;;;;;;;;;5053275;28;20013;-75
2022/04/19 03:29:19;;;;;;;9.65;6.68;;;;;;;;;;5053947;28;20064;-68
2022/04/19 03:31:46;;;;;;;10.20;6.97;;;;;;;;;;5055055;28;20032;-74
2022/04/19 03:34:12;;;;;;;12.57;7.57;;;;;;;;;;5054427;28;20102;-75
2022/04/19 03:36:38;;;;;;;12.57;7.75;;;;;;;;;;5053978;28;20040;-70
2022/04/19 03:39:04;;;;;;;11.63;7.82;;;;;;;;;;5054321;28;20056;-75
2022/04/19 03:41:30;;;;;;;11.75;7.65;;;;;;;;;;5054930;28;20021;-75
2022/04/19 03:43:56;;;;;;;13.63;8.18;;;;;;;;;;5054927;28;20032;-74
2022/04/19 03:46:22;;;;;;;12.35;8.38;;;;;;;;;;5054178;28;20033;-74
2022/04/19 03:48:48;;;;;;;17.92;8.60;;;;;;;;;;5054332;28;20032;-74
2022/04/19 03:51:14;;;;;;;13.35;8.70;;;;;;;;;;5054620;28;20053;-75
2022/04/19 03:53:40;;;;;;;16.17;9.43;;;;;;;;;;5053406;28;20021;-75
2022/04/19 03:56:06;;;;;;;14.63;9.73;;;;;;;;;;5054623;28;20425;-75
2022/04/19 03:58:32;;;;;;;16.20;9.93;;;;;;;;;;5054308;28;20382;-75
2022/04/19 04:00:59;;;;;;;13.30;9.30;;;;;;;;;;5054710;28;20049;-75
2022/04/19 04:03:25;;;;;;;14.27;9.48;;;;;;;;;;5053922;28;20501;-76
2022/04/19 04:05:51;;;;;;;11.68;8.77;;;;;;;;;;5054443;28;20446;-75
2022/04/19 04:08:17;;;;;;;11.90;7.43;;;;;;;;;;5036134;28;20466;-75
2022/04/19 04:10:43;;;;;;;11.77;7.75;;;;;;;;;;5054305;28;20063;-76
2022/04/19 04:13:09;;;;;;;11.05;7.43;;;;;;;;;;5054481;28;20025;-75
2022/04/19 04:15:35;;;;;;;9.75;7.03;;;;;;;;;;5053177;28;20491;-76
2022/04/19 04:18:02;;;;;;;10.90;7.55;;;;;;;;;;5052949;28;20025;-75
2022/04/19 04:20:28;;;;;;;10.15;7.57;;;;;;;;;;5070025;28;20009;-76
2022/04/19 04:22:54;;;;;;;12.38;8.43;;;;;;;;;;5063410;28;20104;-74
2022/04/19 04:25:20;;;;;;;10.93;8.00;;;;;;;;;;5053788;28;20029;-74
2022/04/19 04:27:46;;;;;;;13.38;8.40;;;;;;;;;;5053505;28;20377;-74
2022/04/19 04:30:13;;;;;;;12.25;8.35;;;;;;;;;;5053350;28;20033;-75
2022/04/19 04:32:39;;;;;;;13.13;9.80;;;;;;;;;;5059673;28;20028;-75
2022/04/19 04:35:05;;;;;;;12.55;8.55;;;;;;;;;;5053316;28;20083;-77
2022/04/19 04:37:31;;;;;;;16.77;8.60;;;;;;;;;;5053911;28;20017;-76
2022/04/19 04:39:58;;;;;;;15.27;9.27;;;;;;;;;;5056630;28;20033;-77
2022/04/19 04:42:25;;;;;;;14.23;8.32;;;;;;;;;;5055543;28;20466;-72
2022/04/19 04:44:51;;;;;;;13.13;8.32;;;;;;;;;;5055043;28;20071;-77
2022/04/19 04:50:02;;;;;;;14.13;9.15;;;;;;;;;;5038115;28;20082;-71
2022/04/19 04:52:28;;;;;;;13.95;9.70;;;;;;;;;;5063285;28;20052;-77
2022/04/19 04:54:56;;;;;;;14.02;8.73;;;;;;;;;;5066273;28;20025;-78
2022/04/19 04:57:25;;;;;;;13.50;7.45;;;;;;;;;;5054043;28;20021;-78
2022/04/19 04:59:51;;;;;;;10.25;7.03;;;;;;;;;;5064834;28;20434;-71
2022/04/19 05:02:23;;;;;;;10.40;7.25;;;;;;;;;;5056826;28;20029;-77
2022/04/19 05:05:09;;;;;;;13.50;7.95;;;;;;;;;;5061883;28;20044;-72
2022/04/19 05:07:37;;;;;;;11.52;7.85;;;;;;;;;;5052202;28;20036;-74
2022/04/19 05:10:03;;;;;;;14.25;7.82;;;;;;;;;;5049793;28;20037;-72
2022/04/19 05:12:29;;;;;;;11.10;8.13;;;;;;;;;;5051447;28;20051;-73
2022/04/19 05:14:55;;;;;;;15.25;9.32;;;;;;;;;;5051160;28;20048;-73
2022/04/19 05:17:21;;;;;;;13.15;8.38;;;;;;;;;;5051633;28;20071;-71
2022/04/19 05:19:47;;;;;;;12.13;8.63;;;;;;;;;;5052076;28;20029;-72
2022/04/19 05:22:13;;;;;;;12.55;8.23;;;;;;;;;;5052020;28;20025;-75
2022/04/19 05:24:39;;;;;;;13.30;7.50;;;;;;;;;;5052183;28;20497;-73
2022/04/19 05:27:05;;;;;;;13.40;8.02;;;;;;;;;;5051112;28;20035;-71
2022/04/19 05:29:31;;;;;;;11.85;7.35;;;;;;;;;;5050700;28;20028;-74
2022/04/19 05:31:57;;;;;;;13.23;7.53;;;;;;;;;;5050781;28;20017;-74
2022/04/19 05:34:23;;;;;;;12.82;7.50;;;;;;;;;;5051327;28;20040;-74
2022/04/19 05:36:49;;;;;;;13.27;6.93;;;;;;;;;;5051531;28;20493;-74
2022/04/19 05:39:15;;;;;;;10.43;6.30;;;;;;;;;;5050716;28;20559;-71
2022/04/19 05:41:42;;;;;;;10.23;6.38;;;;;;;;;;5050671;28;20021;-73
2022/04/19 05:44:08;;;;;;;11.10;6.65;;;;;;;;;;5049147;28;20044;-71
2022/04/19 05:46:36;;;;;;;10.95;7.40;;;;;;;;;;5050970;28;20052;-71
2022/04/19 05:49:04;;;;;;;12.55;7.43;;;;;;;;;;5054600;28;20577;-84
2022/04/19 05:51:30;;;;;;;13.00;7.07;;;;;;;;;;5052134;28;20466;-86
2022/04/19 05:53:56;;;;;;;10.27;6.30;;;;;;;;;;5045277;28;20118;-79
2022/04/19 05:56:22;;;;;;;9.75;6.18;;;;;;;;;;5051491;28;20435;-76
2022/04/19 05:58:48;;;;;;;11.27;6.97;;;;;;;;;;5050955;28;20464;-77
2022/04/19 06:01:15;;;;;;;12.23;6.60;;;;;;;;;;5050539;28;20390;-73
2022/04/19 06:06:26;;;;;;;25.27;15.57;;;;;;;;;;5048101;28;20040;-73
2022/04/19 06:08:53;;;;;;;10.48;6.40;;;;;;;;;;5051348;28;20383;-80
2022/04/19 06:11:20;;;;;;;8.77;5.63;;;;;;;;;;5051337;28;20025;-73
2022/04/19 06:13:46;;;;;;;10.95;6.88;;;;;;;;;;5051024;28;20386;-74
2022/04/19 06:16:12;;;;;;;11.82;6.38;;;;;;;;;;5052859;28;20154;-74
2022/04/19 06:18:38;;;;;;;8.80;5.40;;;;;;;;;;5053996;28;20033;-75
2022/04/19 06:21:05;;;;;;;7.88;5.57;;;;;;;;;;5055611;28;20025;-77
2022/04/19 06:23:34;;;;;;;10.68;7.00;;;;;;;;;;5052953;28;20033;-75
2022/04/19 06:26:01;;;;;;;13.25;6.60;;;;;;;;;;5055471;28;20033;-77
2022/04/19 06:28:27;;;;;;;11.68;6.72;;;;;;;;;;5053430;28;20561;-78
2022/04/19 06:30:53;;;;;;;11.88;7.80;;;;;;;;;;5055224;28;20107;-82
2022/04/19 06:33:19;;;;;;;30.50;16.52;;;;;;;;;;5058237;28;20071;-86
2022/04/19 06:35:47;;;;;;;27.10;16.38;;;;;;;;;;5053161;28;20029;-81
2022/04/19 06:38:13;;;;;;;22.27;6.30;;;;;;;;;;5050659;28;20049;-82
2022/04/19 06:40:39;;;;;;;10.18;5.63;;;;;;;;;;5053946;28;20025;-79
2022/04/19 06:43:05;;;;;;;8.77;5.82;;;;;;;;;;5055111;28;20029;-75
2022/04/19 06:45:31;;;;;;;11.50;5.25;;;;;;;;;;5053148;28;20099;-79
2022/04/19 06:48:02;;;;;;;10.52;5.30;;;;;;;;;;5052373;28;20388;-77
2022/04/19 06:50:28;;;;;;;10.02;5.35;;;;;;;;;;5056212;28;20082;-75
2022/04/19 06:52:54;;;;;;;7.97;4.60;;;;;;;;;;5052980;28;20036;-74
2022/04/19 06:55:21;;;;;;;8.55;5.18;;;;;;;;;;5055433;28;20474;-73
2022/04/19 06:57:47;;;;;;;13.27;4.75;;;;;;;;;;5054471;28;20462;-74
2022/04/19 07:00:14;;;;;;;9.77;4.70;;;;;;;;;;5055064;28;20100;-77
2022/04/19 07:02:40;;;;;;;7.50;4.53;;;;;;;;;;5054486;28;20021;-78
2022/04/19 07:05:06;;;;;;;11.93;5.18;;;;;;;;;;5037747;28;20037;-79
2022/04/19 07:07:33;;;;;;;7.18;4.50;;;;;;;;;;5051490;28;20148;-76
2022/04/19 07:09:59;;;;;;;8.68;5.10;;;;;;;;;;5052582;28;20021;-85
2022/04/19 07:12:25;;;;;;;7.10;4.82;;;;;;;;;;5031395;28;20451;-77
2022/04/19 07:14:51;;;;;;;9.77;5.20;;;;;;;;;;5053338;28;20025;-80
2022/04/19 07:17:17;;;;;;;9.38;4.30;;;;;;;;;;5034701;28;20040;-75
2022/04/19 07:28:04;;;;;;;7.70;4.40;;;;;;;;;;5049658;28;20028;-77
2022/04/19 07:30:31;;;;;;;9.48;4.50;;;;;;;;;;5054431;28;20028;-74
2022/04/19 07:32:57;;;;;;;7.18;4.30;;;;;;;;;;5051396;28;20021;-73
2022/04/19 07:35:23;;;;;;;7.78;4.20;;;;;;;;;;5052461;28;20040;-75
2022/04/19 07:37:49;;;;;;;7.20;4.18;;;;;;;;;;5053204;28;20037;-75
2022/04/19 07:40:15;;;;;;;5.30;3.60;;;;;;;;;;5052948;28;20108;-77
2022/04/19 07:42:44;;;;;;;5.45;3.35;;;;;;;;;;5052574;28;20048;-78
2022/04/19 07:45:11;;;;;;;6.80;3.72;;;;;;;;;;5052432;28;20095;-80
2022/04/19 07:47:37;;;;;;;4.10;3.08;;;;;;;;;;5055035;28;20040;-85
2022/04/19 07:50:03;;;;;;;5.00;3.40;;;;;;;;;;5053334;28;20029;-85
2022/04/19 07:52:29;;;;;;;4.30;3.00;;;;;;;;;;5052844;28;20498;-83
2022/04/19 07:54:55;;;;;;;5.63;3.30;;;;;;;;;;5054001;28;20533;-74
2022/04/19 07:57:22;;;;;;;5.45;3.03;;;;;;;;;;5053327;28;20021;-85
2022/04/19 07:59:53;;;;;;;7.90;3.85;;;;;;;;;;5053274;28;20486;-84
2022/04/19 08:02:19;;;;;;;7.82;4.13;;;;;;;;;;5053997;28;20046;-83
2022/04/19 08:04:45;;;;;;;7.28;3.95;;;;;;;;;;5054813;28;20075;-83
2022/04/19 08:07:12;;;;;;;8.20;3.72;;;;;;;;;;5057993;28;20035;-84
2022/04/19 08:09:38;;;;;;;8.23;4.00;;;;;;;;;;5051585;28;20036;-85
2022/04/19 08:12:05;;;;;;;6.38;3.50;;;;;;;;;;5034689;28;20486;-79
2022/04/19 08:14:31;;;;;;;6.03;3.47;;;;;;;;;;5051472;28;20036;-86
2022/04/19 08:16:58;;;;;;;7.70;3.80;;;;;;;;;;5049635;28;20025;-77
2022/04/19 08:19:24;;;;;;;7.28;3.88;;;;;;;;;;5052853;28;20044;-87
2022/04/19 08:21:51;;;;;;;8.95;3.80;;;;;;;;;;5054294;28;20028;-83
2022/04/19 08:24:19;;;;;;;5.82;3.00;;;;;;;;;;5053773;28;20064;-83
2022/04/19 08:26:45;;;;;;;6.20;3.40;;;;;;;;;;5051938;28;20128;-77
2022/04/19 08:29:14;;;;;;;6.05;3.03;;;;;;;;;;5051868;28;20514;-71
2022/04/19 08:31:40;;;;;;;5.13;3.40;;;;;;;;;;5039137;28;20040;-80
2022/04/19 08:34:06;;;;;;;5.30;3.40;;;;;;;;;;5053166;28;20049;-83
2022/04/19 08:36:34;;;;;;;7.03;3.20;;;;;;;;;;5032290;28;20116;-76
2022/04/19 08:39:00;;;;;;;5.57;3.38;;;;;;;;;;5051401;28;20048;-79
2022/04/19 08:41:27;;;;;;;4.63;3.13;;;;;;;;;;5051017;28;20025;-76
2022/04/19 08:43:53;;;;;;;5.45;3.47;;;;;;;;;;5052421;28;20032;-77
2022/04/19 08:46:19;;;;;;;5.65;3.28;;;;;;;;;;5049695;28;20029;-77
2022/04/19 08:48:45;;;;;;;7.38;4.63;;;;;;;;;;5051811;28;20434;-77
2022/04/19 08:51:12;;;;;;;5.25;3.80;;;;;;;;;;5051488;28;20025;-74
2022/04/19 08:59:10;;;;;;;8.25;3.47;;;;;;;;;;5050774;28;20048;-82
2022/04/19 09:01:36;;;;;;;6.05;3.92;;;;;;;;;;5051131;28;20029;-79
2022/04/19 09:04:05;;;;;;;4.93;3.65;;;;;;;;;;5051069;28;20032;-75
2022/04/19 09:06:53;;;;;;;5.18;3.83;;;;;;;;;;5051285;28;20490;-79
2022/04/19 09:09:30;;;;;;;9.05;5.18;;;;;;;;;;5049588;28;20482;-75
2022/04/19 09:12:16;;;;;;;11.52;5.70;;;;;;;;;;5051478;28;20046;-75
2022/04/19 09:15:05;;;;;;;5.43;3.60;;;;;;;;;;5048436;28;20049;-76
2022/04/19 09:17:35;;;;;;;4.53;3.42;;;;;;;;;;5047104;28;20025;-75
2022/04/19 09:20:18;;;;;;;7.97;4.30;;;;;;;;;;5051462;28;20025;-79
2022/04/19 09:22:45;;;;;;;5.15;3.55;;;;;;;;;;5054708;28;20040;-75
2022/04/19 09:25:38;;;;;;;6.30;3.40;;;;;;;;;;5049692;28;20052;-76
2022/04/19 09:28:13;;;;;;;8.05;5.30;;;;;;;;;;5040506;28;20047;-73
2022/04/19 09:30:42;;;;;;;8.48;4.25;;;;;;;;;;5051156;28;20485;-71
2022/04/19 09:33:09;;;;;;;7.53;4.30;;;;;;;;;;5049919;28;20059;-80
2022/04/19 09:35:37;;;;;;;6.30;4.00;;;;;;;;;;5050371;28;20029;-74
2022/04/19 09:38:04;;;;;;;9.15;5.88;;;;;;;;;;5051413;28;20494;-84
2022/04/19 09:40:43;;;;;;;7.18;4.13;;;;;;;;;;5051850;28;20033;-89
2022/04/19 09:43:13;;;;;;;8.60;4.53;;;;;;;;;;5047377;28;20355;-84
2022/04/19 09:45:54;;;;;;;8.13;4.20;;;;;;;;;;5047247;28;20029;-81
2022/04/19 09:48:25;;;;;;;7.32;4.07;;;;;;;;;;5050012;28;20550;-74
2022/04/19 09:50:57;;;;;;;6.95;3.95;;;;;;;;;;5053437;28;20031;-73
2022/04/19 09:53:24;;;;;;;7.13;4.20;;;;;;;;;;5054928;28;20048;-75
2022/04/19 09:55:51;;;;;;;7.22;4.32;;;;;;;;;;5055532;28;20082;-85
2022/04/19 09:58:17;;;;;;;8.50;4.50;;;;;;;;;;5039219;28;20025;-91
2022/04/19 10:00:46;;;;;;;6.43;4.00;;;;;;;;;;5038848;28;20025;-93
2022/04/19 10:08:46;;;;;;;8.18;4.32;;;;;;;;;;5054932;28;20066;-92
2022/04/19 10:11:15;;;;;;;7.65;4.75;;;;;;;;;;5037398;28;20029;-92
2022/04/19 10:13:41;;;;;;;5.22;4.60;;;;;;;;;;5056081;28;20047;-91
2022/04/19 10:16:12;;;;;;;6.07;4.32;;;;;;;;;;5039893;28;20029;-72
2022/04/19 10:18:38;;;;;;;7.43;4.75;;;;;;;;;;5052879;28;20075;-73
2022/04/19 10:21:06;;;;;;;8.32;4.60;;;;;;;;;;5053840;28;20021;-72
2022/04/19 10:23:34;;;;;;;8.60;4.72;;;;;;;;;;5054232;28;20079;-73
2022/04/19 10:26:12;;;;;;;9.48;4.55;;;;;;;;;;5055595;28;20098;-73
2022/04/19 10:28:38;;;;;;;6.68;4.43;;;;;;;;;;5055183;28;20028;-74
2022/04/19 10:31:05;;;;;;;6.28;4.85;;;;;;;;;;5052295;28;20013;-80
2022/04/19 10:33:42;;;;;;;9.02;5.35;;;;;;;;;;5054699;28;20032;-80
2022/04/19 10:36:34;;;;;;;8.13;4.72;;;;;;;;;;5055025;28;20112;-73
2022/04/19 10:39:13;;;;;;;7.65;5.05;;;;;;;;;;5031393;28;20401;-76
2022/04/19 10:41:56;;;;;;;7.80;5.13;;;;;;;;;;5038253;28;20036;-76
2022/04/19 10:44:31;;;;;;;8.10;5.35;;;;;;;;;;5034481;28;20044;-76
2022/04/19 10:47:03;;;;;;;7.32;4.85;;;;;;;;;;5053539;28;20032;-81
2022/04/19 10:49:29;;;;;;;26.35;18.05;;;;;;;;;;5054125;28;20154;-76
2022/04/19 10:52:01;;;;;;;7.55;5.40;;;;;;;;;;5046479;28;20218;-78
2022/04/19 10:54:45;;;;;;;5.40;4.30;;;;;;;;;;5035350;28;20020;-77
2022/04/19 11:00:00;;;;;;;6.50;4.63;;;;;;;;;;5054057;28;20036;-78
2022/04/19 11:02:35;;;;;;;8.23;5.00;;;;;;;;;;5053201;28;20090;-72
2022/04/19 11:05:02;;;;;;;6.68;4.80;;;;;;;;;;5052673;28;20490;-74
2022/04/19 11:07:42;;;;;;;10.40;5.25;;;;;;;;;;5053996;28;20105;-69
2022/04/19 11:10:08;;;;;;;8.15;5.28;;;;;;;;;;5056258;28;20029;-81
2022/04/19 11:12:56;;;;;;;9.52;5.28;;;;;;;;;;5036435;28;20401;-74
2022/04/19 11:15:36;;;;;;;12.85;5.70;;;;;;;;;;5050517;28;20025;-69
2022/04/19 11:18:24;;;;;;;11.15;6.72;;;;;;;;;;5049222;28;20055;-75
2022/04/19 11:20:51;;;;;;;8.93;6.57;;;;;;;;;;5054196;28;20029;-75
2022/04/19 11:23:19;;;;;;;10.02;6.00;;;;;;;;;;5052159;28;20029;-73
2022/04/19 11:25:45;;;;;;;9.15;5.75;;;;;;;;;;5054388;28;20387;-85
2022/04/19 11:28:11;;;;;;;12.43;6.00;;;;;;;;;;5036075;28;20071;-74
2022/04/19 11:30:50;;;;;;;9.10;5.97;;;;;;;;;;5052539;28;20036;-75
2022/04/19 11:33:23;;;;;;;8.35;5.20;;;;;;;;;;5032940;28;20029;-91
2022/04/19 11:36:03;;;;;;;8.40;5.38;;;;;;;;;;5034941;28;20063;-71
2022/04/19 11:38:29;;;;;;;7.20;5.07;;;;;;;;;;5053090;28;20152;-80
2022/04/19 11:46:45;;;;;;;11.73;6.57;;;;;;;;;;5051510;28;20051;-75
2022/04/19 11:49:12;;;;;;;9.35;6.60;;;;;;;;;;5053342;28;20033;-73
2022/04/19 11:51:38;;;;;;;8.13;6.45;;;;;;;;;;5053257;28;20406;-74
2022/04/19 11:54:08;;;;;;;8.65;5.65;;;;;;;;;;5056563;28;20103;-70
2022/04/19 11:56:34;;;;;;;7.88;5.40;;;;;;;;;;5037114;28;20028;-77
2022/04/19 11:59:01;;;;;;;7.80;5.32;;;;;;;;;;5053999;28;20052;-71
2022/04/19 12:01:28;;;;;;;5.80;4.80;;;;;;;;;;5053894;28;20025;-71
2022/04/19 12:03:54;;;;;;;7.38;4.90;;;;;;;;;;5040406;28;20029;-76
2022/04/19 12:06:21;;;;;;;6.68;5.03;;;;;;;;;;5037055;28;20059;-71
2022/04/19 12:08:50;;;;;;;6.43;5.07;;;;;;;;;;5054653;28;20059;-73
2022/04/19 12:11:18;;;;;;;8.38;5.00;;;;;;;;;;5053036;28;20120;-73
2022/04/19 12:13:46;;;;;;;8.70;5.05;;;;;;;;;;5052509;28;20056;-75
2022/04/19 12:16:31;;;;;;;11.40;7.47;;;;;;;;;;5052824;28;20362;-69
2022/04/19 12:18:59;;;;;;;8.52;4.97;;;;;;;;;;5053409;28;20132;-70
2022/04/19 12:21:36;;;;;;;27.13;15.65;;;;;;;;;;5053482;28;20044;-88
2022/04/19 12:24:03;;;;;;;10.95;6.90;;;;;;;;;;5053350;28;20478;-70
2022/04/19 12:26:29;;;;;;;9.25;4.85;;;;;;;;;;5052681;28;20519;-70
2022/04/19 12:29:06;;;;;;;9.60;6.60;;;;;;;;;;5053387;28;20028;-71
2022/04/19 12:31:35;;;;;;;7.47;4.45;;;;;;;;;;5053368;28;20024;-80
2022/04/19 12:34:02;;;;;;;6.18;4.55;;;;;;;;;;5053400;28;20013;-70
2022/04/19 12:36:28;;;;;;;7.20;4.60;;;;;;;;;;5052095;28;20087;-75
2022/04/19 12:38:59;;;;;;;8.57;4.28;;;;;;;;;;5035265;28;20444;-71
2022/04/19 12:41:44;;;;;;;5.85;4.30;;;;;;;;;;5053262;28;20025;-76
2022/04/19 12:44:14;;;;;;;6.55;4.63;;;;;;;;;;5053345;28;20420;-76
2022/04/19 12:46:44;;;;;;;6.68;4.70;;;;;;;;;;5035494;28;20021;-83
2022/04/19 12:49:27;;;;;;;9.70;5.10;;;;;;;;;;5053143;28;20040;-76
2022/04/19 12:51:59;;;;;;;8.77;4.63;;;;;;;;;;5052221;28;20071;-70
2022/04/19 12:54:28;;;;;;;9.95;4.93;;;;;;;;;;5049549;28;20040;-79
2022/04/19 12:57:01;;;;;;;9.70;4.90;;;;;;;;;;5050941;28;20083;-85
2022/04/19 12:59:28;;;;;;;8.32;4.30;;;;;;;;;;5048998;28;20021;-76
2022/04/19 13:01:54;;;;;;;7.18;4.55;;;;;;;;;;5033950;28;20033;-78
2022/04/19 13:04:20;;;;;;;8.82;4.70;;;;;;;;;;5051057;28;20090;-83
2022/04/19 13:12:19;;;;;;;9.50;4.50;;;;;;;;;;5037711;28;20045;-71
2022/04/19 13:14:46;;;;;;;9.52;4.90;;;;;;;;;;5037636;28;20040;-85
2022/04/19 13:17:12;;;;;;;5.97;4.32;;;;;;;;;;5042778;28;20025;-85
2022/04/19 13:19:42;;;;;;;7.50;5.32;;;;;;;;;;5038309;28;20040;-73
2022/04/19 13:22:12;;;;;;;7.97;4.97;;;;;;;;;;5039008;28;20041;-76
2022/04/19 13:24:39;;;;;;;9.45;5.20;;;;;;;;;;5040130;28;20037;-75
2022/04/19 13:27:06;;;;;;;24.02;6.07;;;;;;;;;;5035055;28;20022;-78
2022/04/19 13:29:35;;;;;;;13.05;5.45;;;;;;;;;;5040149;28;20103;-76
2022/04/19 13:32:01;;;;;;;21.20;4.97;;;;;;;;;;5039752;28;20036;-74
2022/04/19 13:34:30;;;;;;;7.85;4.95;;;;;;;;;;5045052;28;20036;-72
2022/04/19 13:36:59;;;;;;;15.15;5.32;;;;;;;;;;5035632;28;20152;-79
2022/04/19 13:39:28;;;;;;;14.20;4.70;;;;;;;;;;5036612;28;20055;-71
2022/04/19 13:41:54;;;;;;;15.68;5.55;;;;;;;;;;5050002;28;20043;-69
2022/04/19 13:44:21;;;;;;;15.15;8.43;;;;;;;;;;5052703;28;20069;-85
2022/04/19 13:46:48;;;;;;;21.15;8.30;;;;;;;;;;5051234;28;20031;-86
2022/04/19 13:49:14;;;;;;;31.05;14.10;;;;;;;;;;5051956;28;20025;-84
2022/04/19 13:51:42;;;;;;;11.98;5.75;;;;;;;;;;5052509;28;20029;-79
2022/04/19 13:54:10;;;;;;;11.85;5.47;;;;;;;;;;5052952;28;20037;-85
2022/04/19 13:56:37;;;;;;;6.25;4.57;;;;;;;;;;5052619;28;20021;-76
2022/04/19 13:59:04;;;;;;;10.00;4.88;;;;;;;;;;5052844;28;20017;-88
2022/04/19 14:01:31;;;;;;;6.75;4.75;;;;;;;;;;5052273;28;20026;-70
2022/04/19 14:03:57;;;;;;;8.15;4.80;;;;;;;;;;5052685;28;20025;-82
2022/04/19 14:06:23;;;;;;;8.18;4.50;;;;;;;;;;5052410;28;20029;-85
2022/04/19 14:08:49;;;;;;;7.53;4.88;;;;;;;;;;5052049;28;20017;-84
2022/04/19 14:11:15;;;;;;;14.57;4.82;;;;;;;;;;5052488;28;20167;-86
2022/04/19 14:13:41;;;;;;;23.58;5.90;;;;;;;;;;5053674;28;20025;-84
2022/04/19 14:16:09;;;;;;;9.45;5.45;;;;;;;;;;5052545;28;20355;-89
2022/04/19 14:18:35;;;;;;;8.93;4.68;;;;;;;;;;5051526;28;20025;-78
2022/04/19 14:21:01;;;;;;;9.75;5.45;;;;;;;;;;5052694;28;20064;-69
2022/04/19 14:23:27;;;;;;;7.63;5.30;;;;;;;;;;5052454;28;20052;-87
2022/04/19 14:25:53;;;;;;;6.32;4.90;;;;;;;;;;5052577;28;20029;-81
2022/04/19 14:28:21;;;;;;;8.40;4.65;;;;;;;;;;5052186;28;20021;-86
2022/04/19 14:33:32;;;;;;;7.68;4.78;;;;;;;;;;5055071;28;20028;-71
2022/04/19 14:35:58;;;;;;;10.40;5.43;;;;;;;;;;5050498;28;20029;-78
2022/04/19 14:38:26;;;;;;;9.05;4.78;;;;;;;;;;5055379;28;20049;-76
2022/04/19 14:40:52;;;;;;;8.70;4.95;;;;;;;;;;5052968;28;20045;-73
2022/04/19 14:43:18;;;;;;;6.75;5.13;;;;;;;;;;5052700;28;20029;-77
2022/04/19 14:45:44;;;;;;;8.82;5.45;;;;;;;;;;5052946;28;20041;-68
2022/04/19 14:48:10;;;;;;;7.93;5.90;;;;;;;;;;5054107;28;20026;-85
2022/04/19 14:52:13;;;;;;;11.60;5.50;;;;;;;;;;5051880;28;20021;-86
2022/04/19 14:53:22;;;;;;;10.07;5.80;;;;;;;;;;5053870;28;20037;-85
2022/04/19 14:55:48;;;;;;;10.07;5.93;;;;;;;;;;5056260;28;20043;-82
2022/04/19 14:58:14;;;;;;;8.77;5.28;;;;;;;;;;5054460;28;20123;-80
2022/04/19 15:00:40;;;;;;;7.63;5.35;;;;;;;;;;5054526;28;20025;-89
2022/04/19 15:03:08;;;;;;;8.27;5.50;;;;;;;;;;5052786;28;20025;-85
2022/04/19 15:05:36;;;;;;;7.30;5.60;;;;;;;;;;5052365;28;20186;-75
2022/04/19 15:08:02;;;;;;;9.45;5.05;;;;;;;;;;5052576;28;20079;-86
2022/04/19 15:10:28;;;;;;;10.25;5.35;;;;;;;;;;5054600;28;20494;-87
2022/04/19 15:12:55;;;;;;;11.57;6.30;;;;;;;;;;5056407;28;20031;-79
2022/04/19 15:15:21;;;;;;;16.65;6.95;;;;;;;;;;5054584;28;20116;-85
2022/04/19 15:17:48;;;;;;;16.83;6.20;;;;;;;;;;5054533;28;20021;-76
2022/04/19 15:20:15;;;;;;;9.45;6.65;;;;;;;;;;5054552;28;20025;-83
2022/04/19 15:22:41;;;;;;;9.15;5.85;;;;;;;;;;5057856;28;20071;-88
2022/04/19 15:25:07;;;;;;;8.30;5.47;;;;;;;;;;5051091;28;20041;-72
2022/04/19 15:27:33;;;;;;;10.68;5.90;;;;;;;;;;5055202;28;20020;-76
2022/04/19 15:29:59;;;;;;;7.35;5.60;;;;;;;;;;5055003;28;20036;-86